createdAt,value
2022-09-14T00:03:55.281Z,56.50
2022-09-14T00:08:59.111Z,56.60
2022-09-14T00:14:02.615Z,56.40
2022-09-14T00:19:08.788Z,56.40
2022-09-14T00:24:11.836Z,56.40
2022-09-14T00:29:14.088Z,56.40
2022-09-14T00:34:17.548Z,56.40
2022-09-14T00:39:23.644Z,56.50
2022-09-14T00:49:39.447Z,56.50
2022-09-14T00:54:52.398Z,56.50
2022-09-14T00:59:55.683Z,56.40
2022-09-14T01:04:58.031Z,56.50
2022-09-14T01:31:21.239Z,56.30
2022-09-14T01:36:25.932Z,56.80
2022-09-14T01:41:31.493Z,56.60
2022-09-14T01:46:51.562Z,56.50
2022-09-14T01:52:06.434Z,56.50
2022-09-14T01:57:24.159Z,56.50
2022-09-14T02:02:34.826Z,56.40
2022-09-14T02:07:38.133Z,56.40
2022-09-14T02:12:41.293Z,56.10
2022-09-14T02:17:44.346Z,56.30
2022-09-14T02:22:46.589Z,56.20
2022-09-14T02:27:49.083Z,56.40
2022-09-14T02:49:04.536Z,56.20
2022-09-14T02:59:16.855Z,56.30
2022-09-14T03:04:19.357Z,56.50
2022-09-14T03:09:21.616Z,56.30
2022-09-14T03:14:23.883Z,56.20
2022-09-14T03:19:26.115Z,56.30
2022-09-14T03:24:28.319Z,56.30
2022-09-14T03:29:30.567Z,56.10
2022-09-14T03:34:32.764Z,55.70
2022-09-14T03:39:34.970Z,55.50
2022-09-14T03:44:37.247Z,55.70
2022-09-14T03:49:39.957Z,55.70
2022-09-14T03:54:42.149Z,55.60
2022-09-14T03:59:44.374Z,55.40
2022-09-14T04:04:49.296Z,55.50
2022-09-14T04:09:51.558Z,55.30
2022-09-14T04:14:53.848Z,55.20
2022-09-14T04:19:56.086Z,55.10
2022-09-14T04:24:58.275Z,55.20
2022-09-14T04:30:00.496Z,55.20
2022-09-14T04:35:02.760Z,55.10
2022-09-14T04:40:05.465Z,54.90
2022-09-14T04:45:08.536Z,54.90
2022-09-14T04:50:10.752Z,54.90
2022-09-14T04:55:13.019Z,54.70
2022-09-14T05:00:15.643Z,54.70
2022-09-14T05:05:17.984Z,54.60
2022-09-14T05:10:20.320Z,54.80
2022-09-14T05:15:22.543Z,55.00
2022-09-14T05:20:24.836Z,55.00
2022-09-14T05:25:27.571Z,55.10
2022-09-14T05:30:29.975Z,55.20
2022-09-14T05:35:32.215Z,55.30
2022-09-14T05:40:34.456Z,55.40
2022-09-14T05:45:37.205Z,55.20
2022-09-14T05:50:39.447Z,55.30
2022-09-14T05:55:41.670Z,55.50
2022-09-14T06:00:44.151Z,55.40
2022-09-14T06:05:46.412Z,55.60
2022-09-14T06:10:49.087Z,55.30
2022-09-14T06:15:51.366Z,54.90
2022-09-14T06:20:53.576Z,53.50
2022-09-14T06:25:57.361Z,55.30
2022-09-14T06:31:00.306Z,55.00
2022-09-14T06:36:09.340Z,57.10
2022-09-14T06:41:14.542Z,57.40
2022-09-14T06:46:19.837Z,57.30
2022-09-14T06:51:25.112Z,59.00
2022-09-14T06:56:29.291Z,56.60
2022-09-14T07:01:31.911Z,54.30
2022-09-14T07:06:41.325Z,52.40
2022-09-14T07:11:43.798Z,52.00
2022-09-14T07:16:46.099Z,50.00
2022-09-14T07:21:49.983Z,47.20
2022-09-14T07:26:52.271Z,46.60
2022-09-14T07:31:54.569Z,42.90
2022-09-14T07:36:56.809Z,43.40
2022-09-14T07:41:59.042Z,43.20
2022-09-14T07:47:01.274Z,39.30
2022-09-14T07:52:03.683Z,40.80
2022-09-14T07:57:05.986Z,38.90
2022-09-14T08:02:11.213Z,41.00
2022-09-14T08:07:22.261Z,40.00
2022-09-14T08:12:34.195Z,40.60
2022-09-14T08:17:46.056Z,39.00
2022-09-14T08:22:59.429Z,40.20
2022-09-14T08:28:11.282Z,39.60
2022-09-14T08:33:23.052Z,39.50
2022-09-14T08:38:35.187Z,39.80
2022-09-14T08:43:38.830Z,40.60
2022-09-14T08:48:50.815Z,40.70
2022-09-14T08:54:02.651Z,40.50
2022-09-14T09:09:52.390Z,40.40
2022-09-14T09:15:25.151Z,40.80
2022-09-14T09:20:44.432Z,40.20
2022-09-14T09:31:38.848Z,39.60
2022-09-14T09:37:01.034Z,39.60
2022-09-14T09:42:12.478Z,38.50
2022-09-14T09:47:14.884Z,39.40
2022-09-14T09:52:17.863Z,39.50
2022-09-14T09:57:29.924Z,39.60
2022-09-14T10:02:32.576Z,39.10
2022-09-14T10:07:43.285Z,39.20
2022-09-14T10:12:49.981Z,38.90
2022-09-14T10:23:30.446Z,39.50
2022-09-14T10:28:34.379Z,39.10
2022-09-14T10:33:36.749Z,40.00
2022-09-14T10:44:05.461Z,39.10
2022-09-14T10:55:14.142Z,39.00
2022-09-14T11:00:20.655Z,38.30
2022-09-14T11:37:11.003Z,41.20
2022-09-14T11:42:21.407Z,44.10
2022-09-14T11:47:24.846Z,45.70
2022-09-14T11:52:30.092Z,45.50
2022-09-14T11:57:34.250Z,47.30
2022-09-14T12:18:27.784Z,48.40
2022-09-14T12:23:42.386Z,49.20
2022-09-14T12:28:48.710Z,50.70
2022-09-14T12:34:16.392Z,52.10
2022-09-14T12:44:32.104Z,52.10
2022-09-14T12:49:35.714Z,53.60
2022-09-14T13:00:13.851Z,54.30
2022-09-14T13:05:19.345Z,55.00
2022-09-14T13:10:44.833Z,54.30
2022-09-14T13:15:57.846Z,54.70
2022-09-14T13:21:16.705Z,54.20
2022-09-14T13:26:24.441Z,55.20
2022-09-14T13:31:37.804Z,55.90
2022-09-14T13:36:43.495Z,55.30
2022-09-14T13:41:46.120Z,55.70
2022-09-14T13:46:48.727Z,55.90
2022-09-14T13:51:51.001Z,56.20
2022-09-14T13:57:14.733Z,56.50
2022-09-14T14:02:17.148Z,56.90
2022-09-14T14:07:24.931Z,56.80
2022-09-14T14:17:39.816Z,56.90
2022-09-14T14:22:58.176Z,57.00
2022-09-14T14:28:03.307Z,57.10
2022-09-14T14:33:06.812Z,57.30
2022-09-14T14:38:09.935Z,57.60
2022-09-14T14:43:19.256Z,57.70
2022-09-14T14:48:21.499Z,58.20
2022-09-14T14:53:25.333Z,58.60
2022-09-14T14:58:27.558Z,59.00
2022-09-14T15:03:29.914Z,60.00
2022-09-14T15:08:32.186Z,59.70
2022-09-14T15:13:34.395Z,60.40
2022-09-14T15:18:36.649Z,60.70
2022-09-14T15:23:39.076Z,61.10
2022-09-14T15:28:41.290Z,61.50
2022-09-14T15:33:43.564Z,62.50
2022-09-14T15:38:45.768Z,61.80
2022-09-14T15:43:47.983Z,62.90
2022-09-14T15:48:50.198Z,63.10
2022-09-14T15:53:53.051Z,64.60
2022-09-14T15:58:59.626Z,64.80
2022-09-14T16:04:08.294Z,64.10
2022-09-14T16:09:14.794Z,64.40
2022-09-14T16:14:17.384Z,64.20
2022-09-14T16:19:19.640Z,64.40
2022-09-14T16:24:23.754Z,64.20
2022-09-14T16:29:26.247Z,63.40
2022-09-14T16:34:30.155Z,63.50
2022-09-14T16:39:34.910Z,63.10
2022-09-14T16:44:37.227Z,62.10
2022-09-14T16:49:39.526Z,61.60
2022-09-14T16:54:42.517Z,61.90
2022-09-14T16:59:44.708Z,62.00
2022-09-14T17:04:46.941Z,61.40
2022-09-14T17:09:49.307Z,61.30
2022-09-14T17:14:51.525Z,61.50
2022-09-14T17:20:12.123Z,61.20
2022-09-14T17:25:16.924Z,60.70
2022-09-14T17:30:20.060Z,60.50
2022-09-14T17:35:22.291Z,60.40
2022-09-14T17:40:24.554Z,60.60
2022-09-14T17:45:26.835Z,60.20
2022-09-14T17:50:29.742Z,60.10
2022-09-14T17:55:33.136Z,60.00
2022-09-14T18:00:35.769Z,59.90
2022-09-14T18:05:38.130Z,59.70
2022-09-14T18:10:40.343Z,59.60
2022-09-14T18:15:42.549Z,59.50
2022-09-14T18:20:44.731Z,59.40
2022-09-14T18:25:46.930Z,59.10
2022-09-14T18:30:49.543Z,59.10
2022-09-14T18:35:53.751Z,58.90
2022-09-14T18:41:03.079Z,58.80
2022-09-14T18:46:06.889Z,58.90
2022-09-14T18:51:09.240Z,59.10
2022-09-14T18:56:14.283Z,59.00
2022-09-14T19:01:16.743Z,58.90
2022-09-14T19:06:19.819Z,58.80
2022-09-14T19:11:24.231Z,58.50
2022-09-14T19:16:26.620Z,58.60
2022-09-14T19:21:31.275Z,58.60
2022-09-14T19:26:43.900Z,58.50
2022-09-14T19:31:51.082Z,58.10
2022-09-14T19:36:54.400Z,58.00
2022-09-14T19:41:56.619Z,58.60
2022-09-14T19:46:58.879Z,59.00
2022-09-14T19:52:01.216Z,58.30
2022-09-14T19:57:03.629Z,58.20
2022-09-14T20:02:06.613Z,58.00
2022-09-14T20:07:09.270Z,57.90
2022-09-14T20:12:11.488Z,58.00
2022-09-14T20:17:13.728Z,57.80
2022-09-14T20:22:16.900Z,57.80
2022-09-14T20:27:19.467Z,57.90
2022-09-14T20:32:22.320Z,58.00
2022-09-14T20:37:24.544Z,57.70
2022-09-14T20:42:26.759Z,57.90
2022-09-14T20:47:28.990Z,57.60
2022-09-14T20:52:31.887Z,57.50
2022-09-14T20:57:34.085Z,57.50
2022-09-14T21:02:37.645Z,57.80
2022-09-14T21:07:39.934Z,57.70
2022-09-14T21:12:42.187Z,57.70
2022-09-14T21:17:44.401Z,57.70
2022-09-14T21:22:46.711Z,57.90
2022-09-14T21:27:49.043Z,57.80
2022-09-14T21:32:51.340Z,57.60
2022-09-14T21:37:53.589Z,57.70
2022-09-14T21:42:55.969Z,57.70
2022-09-14T21:47:58.189Z,57.40
2022-09-14T21:53:00.907Z,57.30
2022-09-14T21:58:03.424Z,57.30
2022-09-14T22:03:05.980Z,57.30
2022-09-14T22:08:08.200Z,57.10
2022-09-14T22:13:10.393Z,56.90
2022-09-14T22:18:14.222Z,56.90
2022-09-14T22:23:16.455Z,56.70
2022-09-14T22:28:20.083Z,56.60
2022-09-14T22:33:23.978Z,56.50
2022-09-14T22:38:28.888Z,56.40
2022-09-14T22:43:32.432Z,56.10
2022-09-14T22:48:35.401Z,56.10
2022-09-14T22:53:38.146Z,56.10
2022-09-14T22:58:40.359Z,55.90
2022-09-14T23:03:43.091Z,55.80
2022-09-14T23:08:47.506Z,55.60
2022-09-14T23:13:50.471Z,55.50
2022-09-14T23:18:55.038Z,55.40
2022-09-14T23:24:01.014Z,55.10
2022-09-14T23:29:07.127Z,55.10
2022-09-14T23:34:09.514Z,55.00
2022-09-14T23:39:11.728Z,55.00
2022-09-14T23:44:14.032Z,55.00
2022-09-14T23:49:16.284Z,55.00
2022-09-14T23:54:18.752Z,54.70
2022-09-14T23:59:20.999Z,54.80
